Time;durP1;ratioP1;P1;durP2;ratioP2;P2;SDS_P1;SDS_P2;PMS_P1;PMS_P2;Temp;Humidity;BMP_temperature;BMP_pressure;BME280_temperature;BME280_humidity;BME280_pressure;Samples;Min_cycle;Max_cycle;Signal;HPM_P1;HPM_P2
2021/12/12 00:01:32;;;;;;;131.18;61.28;;;;;;;3.21;100.00;101826.66;4832960;29;20040;-73
2021/12/12 00:04:10;;;;;;;133.55;62.80;;;;;;;3.26;100.00;101837.69;4809648;29;20130;-73
2021/12/12 00:06:38;;;;;;;129.02;65.20;;;;;;;3.27;100.00;101836.75;4808291;29;20039;-73
2021/12/12 00:09:13;;;;;;;134.02;63.13;;;;;;;3.30;100.00;101833.78;4833505;29;20039;-73
2021/12/12 00:11:40;;;;;;;133.80;63.83;;;;;;;3.32;100.00;101831.81;4818174;29;20759;-73
2021/12/12 00:14:10;;;;;;;117.05;59.78;;;;;;;3.31;100.00;101827.47;4816265;29;20039;-73
2021/12/12 00:16:36;;;;;;;140.07;63.28;;;;;;;3.28;100.00;101828.59;4815326;29;20031;-73
2021/12/12 00:19:03;;;;;;;124.53;62.45;;;;;;;3.30;100.00;101837.31;4804324;29;20054;-73
2021/12/12 00:21:30;;;;;;;121.60;60.65;;;;;;;3.33;100.00;101833.50;4816629;29;21020;-73
2021/12/12 00:23:55;;;;;;;133.45;63.78;;;;;;;3.31;100.00;101833.66;4829799;28;23949;-72
2021/12/12 00:26:22;;;;;;;132.43;66.18;;;;;;;3.32;100.00;101837.16;4823549;28;20059;-73
2021/12/12 00:28:48;;;;;;;121.57;63.88;;;;;;;3.35;100.00;101839.53;4798486;29;20035;-73
2021/12/12 00:31:15;;;;;;;132.32;65.47;;;;;;;3.40;100.00;101834.59;4803767;29;20051;-73
2021/12/12 00:33:44;;;;;;;129.95;65.63;;;;;;;3.37;100.00;101837.59;4811783;29;20031;-73
2021/12/12 00:36:11;;;;;;;121.28;65.03;;;;;;;3.40;100.00;101836.44;4827012;29;20075;-73
2021/12/12 00:38:37;;;;;;;125.22;66.80;;;;;;;3.39;100.00;101845.41;4807503;29;20054;-73
2021/12/12 00:41:11;;;;;;;121.10;64.47;;;;;;;3.35;100.00;101839.53;4813920;29;20066;-73
2021/12/12 00:43:43;;;;;;;129.50;64.65;;;;;;;3.34;100.00;101835.19;4803605;29;20089;-73
2021/12/12 00:46:10;;;;;;;115.72;61.80;;;;;;;3.35;100.00;101834.19;4833404;28;20165;-73
2021/12/12 00:48:36;;;;;;;128.27;66.78;;;;;;;3.39;100.00;101843.59;4815033;29;20039;-73
2021/12/12 00:51:07;;;;;;;123.47;65.40;;;;;;;3.39;100.00;101824.94;4784661;29;20046;-73
2021/12/12 00:53:34;;;;;;;131.45;62.17;;;;;;;3.40;100.00;101826.63;4833483;28;20035;-73
2021/12/12 00:55:59;;;;;;;111.72;62.25;;;;;;;3.40;100.00;101825.78;4790677;29;20061;-73
2021/12/12 00:58:25;;;;;;;124.90;62.55;;;;;;;3.42;100.00;101818.50;4803157;29;20054;-73
2021/12/12 01:01:08;;;;;;;128.70;64.88;;;;;;;3.41;100.00;101820.31;4832475;29;20074;-73
2021/12/12 01:03:39;;;;;;;124.07;64.10;;;;;;;3.42;100.00;101810.50;4798745;28;20051;-73
2021/12/12 01:06:07;;;;;;;117.10;63.78;;;;;;;3.37;100.00;101810.94;4814248;29;20039;-73
2021/12/12 01:08:34;;;;;;;115.22;60.90;;;;;;;3.42;100.00;101819.34;4830211;29;20035;-73
2021/12/12 01:11:17;;;;;;;113.60;60.67;;;;;;;3.42;100.00;101814.00;4825391;29;20881;-73
2021/12/12 01:13:44;;;;;;;110.68;59.22;;;;;;;3.44;100.00;101814.72;4833743;28;20040;-72
2021/12/12 01:16:24;;;;;;;115.15;60.25;;;;;;;3.47;100.00;101824.22;4783527;29;20205;-73
2021/12/12 01:18:57;;;;;;;104.60;58.50;;;;;;;3.40;100.00;101823.94;4833481;29;20747;-73
2021/12/12 01:21:29;;;;;;;109.80;57.58;;;;;;;3.39;100.00;101822.28;4832449;28;20027;-73
2021/12/12 01:24:08;;;;;;;114.30;60.20;;;;;;;3.40;100.00;101817.78;4826827;29;20047;-72
2021/12/12 01:26:35;;;;;;;105.18;58.65;;;;;;;3.40;100.00;101809.81;4834955;29;20034;-72
2021/12/12 01:29:01;;;;;;;104.07;57.60;;;;;;;3.37;100.00;101802.97;4822793;29;20215;-73
2021/12/12 01:31:31;;;;;;;103.35;60.17;;;;;;;3.39;100.00;101803.63;4815033;29;20046;-73
2021/12/12 01:34:09;;;;;;;100.75;56.85;;;;;;;3.37;100.00;101797.63;4834523;29;20071;-73
2021/12/12 01:39:42;;;;;;;101.38;54.95;;;;;;;3.35;100.00;101800.41;4801836;29;20055;-73
2021/12/12 01:42:34;;;;;;;99.03;54.72;;;;;;;3.40;100.00;101804.47;4821882;29;20066;-74
2021/12/12 01:45:06;;;;;;;98.65;54.63;;;;;;;3.41;100.00;101796.34;4826967;29;20051;-73
2021/12/12 01:47:37;;;;;;;93.90;55.92;;;;;;;3.42;100.00;101798.03;4827707;28;20059;-73
2021/12/12 01:50:14;;;;;;;106.15;56.50;;;;;;;3.42;100.00;101800.69;4821540;29;20062;-72
2021/12/12 01:52:40;;;;;;;103.72;54.13;;;;;;;3.41;100.00;101796.34;4831633;29;20027;-73
2021/12/12 01:55:21;;;;;;;97.95;53.92;;;;;;;3.39;100.00;101808.13;4801811;28;20055;-71
2021/12/12 01:57:48;;;;;;;106.20;54.67;;;;;;;3.35;100.00;101802.25;4836872;28;20149;-74
2021/12/12 02:00:37;;;;;;;119.18;57.50;;;;;;;3.39;100.00;101806.31;4835287;29;20054;-74
2021/12/12 02:03:04;;;;;;;102.25;54.25;;;;;;;3.43;100.00;101798.88;4826123;28;20594;-72
2021/12/12 02:05:30;;;;;;;101.53;53.22;;;;;;;3.44;100.00;101796.06;4838654;29;20035;-73
2021/12/12 02:07:59;;;;;;;104.78;55.30;;;;;;;3.43;100.00;101793.53;4808065;29;20047;-73
2021/12/12 02:10:29;;;;;;;109.53;56.20;;;;;;;3.44;100.00;101789.88;4837547;28;20104;-74
2021/12/12 02:12:56;;;;;;;107.22;56.65;;;;;;;3.44;100.00;101790.75;4833160;29;20565;-74
2021/12/12 02:15:22;;;;;;;110.15;53.33;;;;;;;3.47;100.00;101774.44;4805342;29;21071;-74
2021/12/12 02:17:49;;;;;;;90.95;53.40;;;;;;;3.50;100.00;101774.16;4815555;29;20063;-74
2021/12/12 02:20:32;;;;;;;107.90;55.47;;;;;;;3.54;100.00;101785.38;4826270;28;20051;-73
2021/12/12 02:23:11;;;;;;;98.20;53.33;;;;;;;3.46;100.00;101778.09;4838133;29;20141;-72
2021/12/12 02:36:46;;;;;;;105.95;51.03;;;;;;;3.51;100.00;101767.00;4823764;29;20039;-73
2021/12/12 02:39:15;;;;;;;96.82;51.78;;;;;;;3.59;100.00;101762.66;4814972;29;20055;-73
2021/12/12 02:41:54;;;;;;;101.30;52.75;;;;;;;3.62;100.00;101755.38;4809365;29;21168;-73
2021/12/12 02:44:23;;;;;;;96.95;49.05;;;;;;;3.61;100.00;101759.00;4819951;29;20047;-73
2021/12/12 02:46:50;;;;;;;92.60;51.28;;;;;;;3.63;100.00;101746.38;4791634;29;20146;-73
2021/12/12 02:52:15;;;;;;;98.07;49.55;;;;;;;3.62;100.00;101744.72;4807724;28;20078;-73
2021/12/12 02:54:42;;;;;;;96.32;50.13;;;;;;;3.68;100.00;101746.78;4820827;29;20051;-73
2021/12/12 02:57:08;;;;;;;105.25;50.22;;;;;;;3.71;100.00;101743.81;4833824;28;20118;-73
2021/12/12 02:59:34;;;;;;;91.32;48.10;;;;;;;3.70;100.00;101736.81;4819648;29;20538;-73
2021/12/12 03:02:13;;;;;;;86.90;46.58;;;;;;;3.74;100.00;101748.88;4814877;29;20055;-73
2021/12/12 03:04:40;;;;;;;92.38;47.80;;;;;;;3.76;100.00;101741.56;4826406;29;20220;-73
2021/12/12 03:07:08;;;;;;;82.35;45.35;;;;;;;3.77;100.00;101730.75;4807522;29;20062;-73
2021/12/12 03:09:42;;;;;;;84.15;46.22;;;;;;;3.75;100.00;101730.06;4819592;29;20086;-73
2021/12/12 03:12:13;;;;;;;87.60;47.35;;;;;;;3.76;100.00;101726.41;4799268;29;20052;-73
2021/12/12 03:14:39;;;;;;;82.65;45.88;;;;;;;3.79;100.00;101725.25;4832878;29;20063;-73
2021/12/12 03:17:17;;;;;;;91.78;48.70;;;;;;;3.76;100.00;101728.25;4833584;29;20130;-72
2021/12/12 03:19:48;;;;;;;79.05;44.88;;;;;;;3.78;100.00;101718.28;4819066;29;20051;-72
2021/12/12 03:22:14;;;;;;;77.25;45.60;;;;;;;3.79;100.00;101720.81;4834110;29;20031;-74
2021/12/12 03:24:39;;;;;;;76.65;44.63;;;;;;;3.80;100.00;101695.81;4830821;29;20162;-74
2021/12/12 03:27:06;;;;;;;93.72;46.58;;;;;;;3.79;100.00;101712.81;4826551;28;20063;-73
2021/12/12 03:29:31;;;;;;;81.60;44.50;;;;;;;3.80;100.00;101695.81;4835009;29;20558;-74
2021/12/12 03:32:07;;;;;;;86.07;47.78;;;;;;;3.81;100.00;101696.66;4803117;29;20128;-73
2021/12/12 03:34:39;;;;;;;81.28;44.40;;;;;;;3.83;100.00;101694.69;4804995;29;20043;-73
2021/12/12 03:37:07;;;;;;;78.47;44.03;;;;;;;3.86;100.00;101689.06;4831046;29;20117;-73
2021/12/12 03:39:35;;;;;;;79.60;42.58;;;;;;;3.84;100.00;101680.38;4825612;29;20055;-73
2021/12/12 03:42:05;;;;;;;70.90;41.45;;;;;;;3.88;100.00;101676.41;4835700;28;20039;-73
2021/12/12 03:44:33;;;;;;;77.00;42.78;;;;;;;3.91;100.00;101673.47;4820063;28;20058;-73
2021/12/12 03:47:05;;;;;;;77.95;41.53;;;;;;;3.93;100.00;101678.63;4819330;29;21207;-73
2021/12/12 03:49:37;;;;;;;67.90;39.67;;;;;;;3.91;100.00;101675.28;4833517;29;20031;-74
2021/12/12 03:52:05;;;;;;;72.53;40.42;;;;;;;3.96;100.00;101673.84;4825546;29;20498;-74
2021/12/12 03:54:30;;;;;;;68.10;37.72;;;;;;;3.98;100.00;101663.88;4801278;29;20045;-73
2021/12/12 03:56:56;;;;;;;68.75;39.85;;;;;;;4.00;100.00;101669.91;4820611;28;20059;-74
2021/12/12 03:59:21;;;;;;;70.38;39.20;;;;;;;4.01;100.00;101668.06;4817867;29;20141;-74
2021/12/12 04:01:49;;;;;;;64.32;37.53;;;;;;;3.94;100.00;101651.00;4816470;29;20047;-74
2021/12/12 04:04:33;;;;;;;66.63;37.72;;;;;;;4.00;100.00;101653.91;4821801;28;20055;-74
2021/12/12 04:07:00;;;;;;;69.35;37.83;;;;;;;4.03;100.00;101647.41;4836899;29;20035;-74
2021/12/12 04:09:26;;;;;;;66.75;36.55;;;;;;;4.05;100.00;101646.28;4832310;29;28918;-74
2021/12/12 04:11:55;;;;;;;67.90;36.78;;;;;;;4.13;100.00;101650.03;4827207;29;20055;-73
2021/12/12 04:14:21;;;;;;;64.00;34.60;;;;;;;4.07;100.00;101648.78;4816687;29;20041;-73
2021/12/12 04:16:52;;;;;;;58.90;35.03;;;;;;;4.11;100.00;101644.00;4820693;28;20059;-74
2021/12/12 04:19:17;;;;;;;60.83;34.85;;;;;;;4.15;100.00;101645.41;4834279;28;20251;-74
2021/12/12 04:21:43;;;;;;;60.63;33.40;;;;;;;4.18;100.00;101661.94;4833699;28;20067;-73
2021/12/12 04:24:09;;;;;;;60.58;34.05;;;;;;;4.19;100.00;101657.44;4823419;29;20087;-74
2021/12/12 04:26:44;;;;;;;58.05;32.13;;;;;;;4.23;100.00;101642.81;4835291;29;20037;-74
2021/12/12 04:29:37;;;;;;;56.40;29.42;;;;;;;4.29;100.00;101636.88;4821237;28;20134;-73
2021/12/12 04:32:09;;;;;;;49.92;27.98;;;;;;;4.32;100.00;101639.22;4818977;29;20036;-74
2021/12/12 04:34:44;;;;;;;45.03;27.25;;;;;;;4.40;100.00;101638.47;4812435;29;21077;-74
2021/12/12 04:37:09;;;;;;;43.72;26.88;;;;;;;4.40;100.00;101644.63;4808019;29;20047;-74
2021/12/12 04:39:39;;;;;;;49.70;29.63;;;;;;;4.36;100.00;101632.59;4833979;29;20051;-74
2021/12/12 04:42:14;;;;;;;42.50;26.95;;;;;;;4.36;100.00;101658.44;4819169;29;20174;-73
2021/12/12 04:44:41;;;;;;;44.05;25.70;;;;;;;4.40;100.00;101633.97;4833958;28;20039;-74
2021/12/12 04:50:31;;;;;;;44.72;26.55;;;;;;;4.43;100.00;101648.84;4826641;29;20881;-74
2021/12/12 04:53:04;;;;;;;41.83;26.35;;;;;;;4.42;100.00;101625.78;4817846;29;21199;-75
2021/12/12 04:55:40;;;;;;;42.38;25.13;;;;;;;4.45;100.00;101641.50;4802136;29;22322;-74
2021/12/12 04:58:18;;;;;;;38.35;23.77;;;;;;;4.45;100.00;101641.50;4816030;29;20058;-75
2021/12/12 05:00:54;;;;;;;38.40;24.27;;;;;;;4.47;100.00;101635.03;4830840;28;20050;-75
2021/12/12 05:03:31;;;;;;;44.33;25.55;;;;;;;4.43;100.00;101639.00;4827678;29;20094;-75
2021/12/12 05:06:46;;;;;;;43.10;25.10;;;;;;;4.42;100.00;101640.00;4835846;29;20870;-75
2021/12/12 05:09:23;;;;;;;44.70;25.08;;;;;;;4.38;100.00;101643.94;4819670;29;20083;-75
2021/12/12 05:12:03;;;;;;;37.25;24.08;;;;;;;4.41;100.00;101640.97;4833045;29;20114;-75
2021/12/12 05:14:35;;;;;;;36.90;24.15;;;;;;;4.43;100.00;101633.66;4799766;29;20093;-75
2021/12/12 05:17:09;;;;;;;38.75;25.50;;;;;;;4.40;100.00;101639.31;4828988;29;22857;-75
2021/12/12 05:19:38;;;;;;;37.72;25.20;;;;;;;4.40;100.00;101647.31;4832528;29;20027;-75
2021/12/12 05:22:10;;;;;;;37.83;25.23;;;;;;;4.46;100.00;101643.19;4820494;28;20090;-75
2021/12/12 05:24:36;;;;;;;35.80;24.67;;;;;;;4.43;100.00;101643.50;4814347;29;20277;-75
2021/12/12 05:27:06;;;;;;;45.30;24.02;;;;;;;4.45;100.00;101642.34;4827267;29;21506;-75
2021/12/12 05:29:35;;;;;;;31.15;22.48;;;;;;;4.44;100.00;101635.31;4814289;29;25954;-75
2021/12/12 05:32:04;;;;;;;33.50;23.00;;;;;;;4.44;100.00;101623.81;4835763;29;20063;-76
2021/12/12 05:34:32;;;;;;;31.80;21.13;;;;;;;4.47;100.00;101639.53;4805109;29;22207;-75
2021/12/12 05:37:01;;;;;;;31.02;21.73;;;;;;;4.50;100.00;101634.72;4833846;29;20039;-75
2021/12/12 05:39:27;;;;;;;27.70;19.23;;;;;;;4.51;100.00;101636.38;4814085;29;20226;-75
2021/12/12 05:41:54;;;;;;;26.90;19.58;;;;;;;4.52;100.00;101629.22;4790818;29;20091;-75
2021/12/12 05:44:20;;;;;;;26.88;19.67;;;;;;;4.53;100.00;101634.41;4833973;29;20031;-75
2021/12/12 05:46:46;;;;;;;32.33;20.60;;;;;;;4.53;100.00;101634.41;4802433;29;20097;-75
2021/12/12 05:49:11;;;;;;;31.05;20.00;;;;;;;4.59;100.00;101638.28;4834395;28;20093;-75
2021/12/12 05:51:37;;;;;;;33.35;20.15;;;;;;;4.57;100.00;101640.28;4819919;29;20038;-76
2021/12/12 05:54:04;;;;;;;25.02;19.27;;;;;;;4.60;100.00;101645.31;4804132;29;20090;-75
2021/12/12 05:56:33;;;;;;;27.25;20.17;;;;;;;4.63;100.00;101642.31;4819727;29;21114;-75
2021/12/12 05:59:00;;;;;;;27.52;20.17;;;;;;;4.63;100.00;101649.50;4811860;29;20157;-75
2021/12/12 06:01:26;;;;;;;30.30;20.90;;;;;;;4.61;100.00;101640.81;4807349;29;20202;-73
2021/12/12 06:03:52;;;;;;;30.35;21.10;;;;;;;4.65;100.00;101643.00;4831144;28;20042;-73
2021/12/12 06:06:23;;;;;;;31.10;21.17;;;;;;;4.63;100.00;101638.81;4823003;29;20055;-73
2021/12/12 06:08:49;;;;;;;27.17;20.67;;;;;;;4.65;100.00;101629.66;4836927;29;21088;-74
2021/12/12 06:11:24;;;;;;;32.88;20.90;;;;;;;4.67;100.00;101635.69;4835198;29;20031;-74
2021/12/12 06:13:49;;;;;;;32.53;21.55;;;;;;;4.71;100.00;101641.56;4825682;29;20047;-74
2021/12/12 06:16:19;;;;;;;28.55;20.30;;;;;;;4.69;100.00;101635.53;4818967;28;21602;-74
2021/12/12 06:18:47;;;;;;;27.50;21.33;;;;;;;4.73;100.00;101640.41;4823680;29;20109;-74
2021/12/12 06:21:12;;;;;;;31.88;21.08;;;;;;;4.81;100.00;101646.78;4835511;28;20241;-74
2021/12/12 06:23:38;;;;;;;27.00;19.88;;;;;;;4.82;100.00;101653.81;4821847;29;21846;-74
2021/12/12 06:26:03;;;;;;;26.58;19.67;;;;;;;4.81;100.00;101647.66;4802585;29;20055;-74
2021/12/12 06:28:34;;;;;;;30.42;21.33;;;;;;;4.80;100.00;101651.28;4818579;29;21260;-74
2021/12/12 06:31:01;;;;;;;29.15;19.85;;;;;;;4.79;100.00;101644.28;4834323;28;23821;-75
2021/12/12 06:33:27;;;;;;;27.13;20.35;;;;;;;4.81;100.00;101636.97;4829372;29;20055;-75
2021/12/12 06:35:52;;;;;;;25.30;19.10;;;;;;;4.80;100.00;101645.97;4820334;29;20158;-75
2021/12/12 06:38:18;;;;;;;24.80;19.20;;;;;;;4.86;100.00;101639.16;4827214;28;20910;-75
2021/12/12 06:40:44;;;;;;;25.35;19.95;;;;;;;4.88;100.00;101632.69;4803935;28;20086;-76
2021/12/12 06:43:14;;;;;;;27.77;19.52;;;;;;;4.91;100.00;101640.34;4835570;29;20391;-75
2021/12/12 06:45:40;;;;;;;24.33;17.95;;;;;;;4.93;100.00;101635.72;4825278;28;20178;-75
2021/12/12 06:48:08;;;;;;;20.58;17.48;;;;;;;4.93;100.00;101638.38;4821729;29;20467;-75
2021/12/12 06:50:35;;;;;;;26.58;19.38;;;;;;;4.93;100.00;101649.06;4833507;29;20189;-75
2021/12/12 06:53:02;;;;;;;24.73;19.13;;;;;;;4.90;100.00;101646.69;4829751;29;20241;-75
2021/12/12 06:55:29;;;;;;;26.58;17.45;;;;;;;4.90;100.00;101652.03;4819596;29;20039;-75
2021/12/12 06:57:54;;;;;;;25.65;18.42;;;;;;;4.94;100.00;101650.72;4823156;29;21180;-75
2021/12/12 07:00:22;;;;;;;22.17;17.92;;;;;;;4.95;100.00;101657.78;4819090;29;20039;-75
2021/12/12 07:02:48;;;;;;;23.38;17.58;;;;;;;4.97;100.00;101663.78;4833246;28;20035;-74
2021/12/12 07:05:20;;;;;;;21.23;16.98;;;;;;;5.02;100.00;101656.16;4795825;29;20047;-74
2021/12/12 07:07:46;;;;;;;20.55;16.85;;;;;;;5.08;100.00;101654.66;4819690;29;20034;-75
2021/12/12 07:10:13;;;;;;;22.92;18.17;;;;;;;5.09;100.00;101660.84;4816540;29;20047;-75
2021/12/12 07:12:40;;;;;;;22.92;18.42;;;;;;;5.11;100.00;101659.69;4819642;29;20185;-75
2021/12/12 07:15:12;;;;;;;20.77;16.17;;;;;;;5.10;100.00;101662.53;4819618;29;20066;-75
2021/12/12 07:17:38;;;;;;;24.15;18.55;;;;;;;5.06;100.00;101662.00;4808207;29;21898;-75
2021/12/12 07:20:05;;;;;;;24.52;18.45;;;;;;;5.15;100.00;101661.06;4822634;29;20035;-74
2021/12/12 07:22:31;;;;;;;26.50;18.83;;;;;;;5.19;100.00;101662.41;4834829;28;20050;-74
2021/12/12 07:24:59;;;;;;;20.33;17.02;;;;;;;5.18;100.00;101667.91;4831229;29;20178;-74
2021/12/12 07:27:25;;;;;;;24.08;18.65;;;;;;;5.20;100.00;101664.09;4824406;29;20039;-74
2021/12/12 07:29:50;;;;;;;21.90;17.60;;;;;;;5.24;100.00;101664.63;4828587;28;20051;-73
2021/12/12 07:32:16;;;;;;;24.63;18.27;;;;;;;5.24;100.00;101677.97;4839586;29;22528;-74
2021/12/12 07:34:41;;;;;;;22.65;17.52;;;;;;;5.24;100.00;101676.16;4838441;29;22967;-74
2021/12/12 07:37:09;;;;;;;26.88;19.38;;;;;;;5.30;100.00;101684.50;4806933;29;21342;-75
2021/12/12 07:39:38;;;;;;;21.58;17.33;;;;;;;5.28;100.00;101673.16;4821579;29;20032;-75
2021/12/12 07:42:05;;;;;;;22.85;17.77;;;;;;;5.37;100.00;101686.41;4833840;28;20062;-75
2021/12/12 07:44:33;;;;;;;22.13;16.88;;;;;;;5.34;100.00;101686.72;4833891;28;20055;-75
2021/12/12 07:46:59;;;;;;;23.02;18.42;;;;;;;5.33;100.00;101682.38;4843427;29;20039;-75
2021/12/12 07:49:30;;;;;;;23.55;18.73;;;;;;;5.34;100.00;101686.72;4830904;29;20543;-75
2021/12/12 07:51:56;;;;;;;26.73;18.67;;;;;;;5.37;100.00;101691.75;4824070;29;20087;-74
2021/12/12 07:54:22;;;;;;;28.10;19.02;;;;;;;5.38;100.00;101696.09;4840441;28;20031;-75
2021/12/12 07:56:48;;;;;;;23.35;17.58;;;;;;;5.39;100.00;101700.44;4826926;29;20054;-75
2021/12/12 07:59:14;;;;;;;23.27;18.15;;;;;;;5.48;100.00;101709.38;4838449;29;20067;-74
2021/12/12 08:01:43;;;;;;;23.52;18.48;;;;;;;5.46;100.00;101700.66;4836372;29;20057;-75
2021/12/12 08:04:10;;;;;;;23.50;18.08;;;;;;;5.49;100.00;101690.47;4853571;28;21672;-75
2021/12/12 08:06:36;;;;;;;24.25;18.10;;;;;;;5.50;100.00;101713.53;4816678;29;20119;-75
2021/12/12 08:09:03;;;;;;;23.08;18.90;;;;;;;5.58;100.00;101710.09;4833205;28;20051;-75
2021/12/12 08:11:31;;;;;;;25.05;18.05;;;;;;;5.63;100.00;101718.44;4840526;29;20527;-75
2021/12/12 08:13:58;;;;;;;24.00;19.17;;;;;;;5.59;100.00;101721.63;4813583;29;20130;-75
2021/12/12 08:16:24;;;;;;;23.88;18.25;;;;;;;5.62;100.00;101710.59;4829042;29;20088;-74
2021/12/12 08:18:50;;;;;;;24.38;19.13;;;;;;;5.70;100.00;101707.97;4832165;29;20033;-75
2021/12/12 08:21:16;;;;;;;25.60;19.98;;;;;;;5.71;100.00;101706.97;4826971;29;21619;-75
2021/12/12 08:23:42;;;;;;;24.52;19.58;;;;;;;5.71;100.00;101704.28;4839424;29;20142;-75
2021/12/12 08:26:09;;;;;;;27.48;19.33;;;;;;;5.72;100.00;101712.16;4820575;29;20055;-75
2021/12/12 08:28:35;;;;;;;22.63;18.67;;;;;;;5.76;100.00;101707.34;4827762;29;20078;-75
2021/12/12 08:31:01;;;;;;;26.98;19.95;;;;;;;5.79;100.00;101712.38;4846717;29;20046;-74
2021/12/12 08:33:27;;;;;;;28.23;20.40;;;;;;;5.81;100.00;101710.34;4846017;28;20067;-74
2021/12/12 08:35:53;;;;;;;28.13;20.13;;;;;;;5.85;100.00;101717.06;4838167;29;20051;-74
2021/12/12 08:38:19;;;;;;;25.00;19.15;;;;;;;5.83;100.00;101721.75;4836462;29;20031;-74
2021/12/12 08:40:49;;;;;;;24.15;19.17;;;;;;;5.87;100.00;101731.09;4823808;29;20173;-75
2021/12/12 08:43:16;;;;;;;26.70;20.20;;;;;;;5.91;100.00;101731.63;4837515;29;20078;-74
2021/12/12 08:45:49;;;;;;;29.75;21.25;;;;;;;5.99;100.00;101729.00;4833524;29;20031;-74
2021/12/12 08:48:16;;;;;;;26.48;21.27;;;;;;;6.00;100.00;101729.84;4800065;29;20130;-74
2021/12/12 08:50:46;;;;;;;30.35;21.08;;;;;;;6.12;100.00;101733.91;4829515;29;20035;-73
2021/12/12 08:53:12;;;;;;;30.42;21.85;;;;;;;6.03;100.00;101730.34;4826637;29;20061;-73
2021/12/12 08:55:43;;;;;;;28.48;20.55;;;;;;;6.07;100.00;101737.09;4804651;29;20055;-73
2021/12/12 08:58:15;;;;;;;31.15;21.65;;;;;;;6.12;100.00;101733.91;4813362;29;20039;-73
2021/12/12 09:00:55;;;;;;;29.20;20.77;;;;;;;6.17;100.00;101734.25;4817427;29;20051;-73
2021/12/12 09:03:34;;;;;;;32.63;21.50;;;;;;;6.16;100.00;101740.63;4812529;29;20096;-74
2021/12/12 09:05:59;;;;;;;32.45;21.80;;;;;;;6.22;100.00;101737.28;4823098;28;20061;-73
2021/12/12 09:09:13;;;;;;;29.40;22.13;;;;;;;6.27;100.00;101756.38;4822098;29;20886;-73
2021/12/12 09:12:02;;;;;;;26.58;17.98;;;;;;;6.26;100.00;101745.84;4801439;29;20047;-73
2021/12/12 09:14:31;;;;;;;35.70;21.83;;;;;;;6.32;100.00;101751.38;4817843;29;20051;-72
2021/12/12 09:17:26;;;;;;;33.67;23.70;;;;;;;6.34;100.00;101757.38;4834037;29;20039;-72
2021/12/12 09:20:02;;;;;;;35.72;23.30;;;;;;;6.40;100.00;101759.41;4785382;28;20535;-72
2021/12/12 09:22:41;;;;;;;33.50;23.40;;;;;;;6.51;100.00;101771.66;4830738;29;20442;-72
2021/12/12 09:25:23;;;;;;;34.25;24.52;;;;;;;6.49;100.00;101775.50;4829818;29;21767;-73
2021/12/12 09:27:53;;;;;;;35.42;24.08;;;;;;;6.48;100.00;101765.78;4825928;29;20150;-74
2021/12/12 09:30:21;;;;;;;40.15;25.92;;;;;;;6.52;100.00;101767.13;4813282;29;20054;-75
2021/12/12 09:32:58;;;;;;;39.55;26.25;;;;;;;6.58;100.00;101771.84;4822779;28;20130;-75
2021/12/12 09:35:30;;;;;;;37.53;25.25;;;;;;;6.52;100.00;101773.31;4834308;29;20047;-75
2021/12/12 09:38:04;;;;;;;44.20;25.70;;;;;;;6.53;100.00;101779.50;4817624;29;20039;-74
2021/12/12 09:40:29;;;;;;;;;;;;;;;6.55;100.00;101788.22;4825850;29;20051;-73
2021/12/12 09:43:32;;;;;;;39.45;26.15;;;;;;;6.65;100.00;101786.25;4832413;29;19957;-73
2021/12/12 09:46:27;;;;;;;42.45;26.65;;;;;;;6.67;100.00;101782.41;4818905;29;20055;-73
2021/12/12 09:52:20;;;;;;;47.65;29.50;;;;;;;6.79;100.00;101790.13;4808599;29;20057;-73
2021/12/12 09:55:29;;;;;;;49.80;30.17;;;;;;;6.80;100.00;101792.63;4831141;28;20035;-73
2021/12/12 09:58:00;;;;;;;52.05;29.30;;;;;;;6.83;100.00;101791.47;4817226;29;20051;-74
2021/12/12 10:00:40;;;;;;;55.63;30.52;;;;;;;6.86;100.00;101786.63;4824607;29;20063;-72
2021/12/12 10:03:28;;;;;;;54.90;32.10;;;;;;;6.88;100.00;101790.00;4834011;29;20042;-72
2021/12/12 10:06:00;;;;;;;59.65;32.55;;;;;;;6.92;100.00;101785.13;4821039;28;20051;-72
2021/12/12 10:08:34;;;;;;;67.20;32.63;;;;;;;6.95;100.00;101779.44;4833171;29;20249;-72
2021/12/12 10:11:03;;;;;;;63.72;35.10;;;;;;;6.98;100.00;101778.25;4827437;28;20400;-73
2021/12/12 10:13:36;;;;;;;67.13;35.25;;;;;;;6.99;100.00;101783.47;4821343;28;20640;-73
2021/12/12 10:16:24;;;;;;;70.93;36.35;;;;;;;7.05;100.00;101779.25;4829844;28;20114;-73
2021/12/12 10:18:59;;;;;;;70.20;35.55;;;;;;;7.13;100.00;101780.13;4798651;29;20054;-72
2021/12/12 10:21:34;;;;;;;69.88;36.72;;;;;;;7.15;100.00;101787.97;4831863;29;20132;-73
2021/12/12 10:24:27;;;;;;;69.78;38.08;;;;;;;7.16;100.00;101776.28;4831652;29;20233;-71
2021/12/12 10:27:03;;;;;;;80.07;40.65;;;;;;;7.24;100.00;101784.31;4830747;29;20081;-72
2021/12/12 10:29:40;;;;;;;77.53;39.25;;;;;;;7.31;100.00;101774.59;4833724;29;20566;-73
2021/12/12 10:32:19;;;;;;;84.60;38.30;;;;;;;7.28;100.00;101774.91;4806016;28;20059;-73
2021/12/12 10:34:51;;;;;;;72.93;37.85;;;;;;;7.35;100.00;101770.56;4835321;28;20270;-72
2021/12/12 10:37:50;;;;;;;78.72;38.70;;;;;;;7.37;100.00;101768.56;4822311;29;20066;-71
2021/12/12 10:40:22;;;;;;;75.18;38.83;;;;;;;7.44;100.00;101778.59;4821418;29;23854;-73
2021/12/12 10:42:53;;;;;;;78.63;38.72;;;;;;;7.45;100.00;101774.91;4818369;28;20140;-73
2021/12/12 10:45:31;;;;;;;71.25;37.80;;;;;;;7.52;100.00;101782.09;4793692;29;20054;-73
2021/12/12 10:48:07;;;;;;;64.07;35.63;;;;;;;7.62;100.00;101781.94;4837319;29;20050;-73
2021/12/12 10:51:04;;;;;;;73.75;38.83;;;;;;;7.63;100.00;101781.75;4820575;29;20082;-73
2021/12/12 10:53:59;;;;;;;73.15;37.28;;;;;;;7.64;100.00;101779.91;4817056;29;20046;-73
2021/12/12 10:56:52;;;;;;;65.07;35.78;;;;;;;7.71;100.00;101770.16;4832094;29;20069;-71
2021/12/12 10:59:19;;;;;;;69.80;37.42;;;;;;;7.78;100.00;101776.50;4838163;28;20059;-72
2021/12/12 11:01:48;;;;;;;69.97;37.95;;;;;;;7.80;100.00;101762.94;4801288;29;20043;-72
2021/12/12 11:04:17;;;;;;;72.88;37.55;;;;;;;7.80;100.00;101763.78;4822600;28;21323;-73
2021/12/12 11:06:52;;;;;;;63.63;36.22;;;;;;;7.84;100.00;101762.41;4833779;29;21415;-72
2021/12/12 11:09:34;;;;;;;70.13;36.58;;;;;;;7.87;100.00;101766.63;4830783;28;20050;-73
2021/12/12 11:12:11;;;;;;;71.32;36.53;;;;;;;7.86;100.00;101768.47;4836909;29;25782;-71
2021/12/12 11:14:45;;;;;;;65.43;34.80;;;;;;;7.79;100.00;101778.22;4835804;29;20046;-72
2021/12/12 11:17:19;;;;;;;63.97;34.88;;;;;;;7.83;100.00;101774.16;4807076;29;20065;-74
2021/12/12 11:19:55;;;;;;;65.63;35.83;;;;;;;7.89;100.00;101768.09;4834154;29;20577;-74
2021/12/12 11:22:27;;;;;;;60.88;34.67;;;;;;;7.95;100.00;101765.75;4801466;28;20140;-73
2021/12/12 11:24:58;;;;;;;63.40;35.25;;;;;;;7.92;100.00;101771.44;4819311;29;20039;-74
2021/12/12 11:27:30;;;;;;;64.10;35.47;;;;;;;7.94;100.00;101772.13;4816788;29;20081;-74
2021/12/12 11:30:21;;;;;;;66.90;36.17;;;;;;;7.94;100.00;101770.28;4791031;29;20087;-75
2021/12/12 11:32:49;;;;;;;66.72;37.50;;;;;;;7.96;100.00;101772.78;4820408;29;20035;-74
2021/12/12 11:35:18;;;;;;;63.10;34.35;;;;;;;8.00;100.00;101763.38;4820855;29;20087;-74
2021/12/12 11:37:59;;;;;;;61.75;33.83;;;;;;;8.04;100.00;101765.56;4840745;28;20039;-74
2021/12/12 11:40:42;;;;;;;60.65;34.92;;;;;;;8.06;100.00;101768.03;4840447;29;20142;-74
2021/12/12 11:43:14;;;;;;;60.47;33.08;;;;;;;8.13;100.00;101782.44;4830045;29;20062;-74
2021/12/12 11:45:43;;;;;;;62.47;35.78;;;;;;;8.18;100.00;101782.78;4836935;29;20057;-74
2021/12/12 11:48:23;;;;;;;63.17;33.58;;;;;;;8.23;100.00;101783.06;4788227;29;20097;-74
2021/12/12 11:50:58;;;;;;;64.03;34.58;;;;;;;8.27;100.00;101781.72;4816636;29;20066;-74